createdAt,value
2022-08-24T00:01:37.935Z,101627.00
2022-08-24T00:04:10.880Z,101623.00
2022-08-24T00:06:44.698Z,101619.00
2022-08-24T00:09:17.475Z,101617.00
2022-08-24T00:11:50.338Z,101615.00
2022-08-24T00:14:23.173Z,101612.00
2022-08-24T00:16:56.292Z,101616.00
2022-08-24T00:19:29.992Z,101597.00
2022-08-24T00:22:03.028Z,101594.00
2022-08-24T00:24:35.884Z,101594.00
2022-08-24T00:27:09.011Z,101588.00
2022-08-24T00:29:42.378Z,101579.00
2022-08-24T00:32:19.538Z,101582.00
2022-08-24T00:34:59.298Z,101580.00
2022-08-24T00:37:36.656Z,101575.00
2022-08-24T00:40:12.489Z,101566.00
2022-08-24T00:42:45.655Z,101563.00
2022-08-24T00:45:19.951Z,101567.00
2022-08-24T00:47:55.012Z,101564.00
2022-08-24T00:50:35.831Z,101551.00
2022-08-24T00:53:10.626Z,101555.00
2022-08-24T00:55:45.646Z,101561.00
2022-08-24T00:58:24.163Z,101557.00
2022-08-24T01:01:02.383Z,101559.00
2022-08-24T01:03:36.652Z,101555.00
2022-08-24T01:06:09.852Z,101555.00
2022-08-24T01:08:42.909Z,101549.00
2022-08-24T01:11:20.897Z,101562.00
2022-08-24T01:13:55.533Z,101550.00
2022-08-24T01:16:46.041Z,101556.00
2022-08-24T01:19:44.336Z,101556.00
2022-08-24T01:22:45.417Z,101553.00
2022-08-24T01:25:18.526Z,101559.00
2022-08-24T01:27:52.409Z,101566.00
2022-08-24T01:30:30.747Z,101560.00
2022-08-24T01:33:05.623Z,101560.00
2022-08-24T01:35:40.208Z,101554.00
2022-08-24T01:38:21.921Z,101544.00
2022-08-24T01:40:59.082Z,101545.00
2022-08-24T01:43:32.140Z,101537.00
2022-08-24T01:46:06.493Z,101541.00
2022-08-24T01:48:43.805Z,101543.00
2022-08-24T01:51:22.024Z,101537.00
2022-08-24T01:53:55.034Z,101538.00
2022-08-24T01:56:28.206Z,101530.00
2022-08-24T01:59:03.344Z,101526.00
2022-08-24T02:01:39.112Z,101524.00
2022-08-24T02:04:19.044Z,101532.00
2022-08-24T02:06:51.981Z,101527.00
2022-08-24T02:09:24.918Z,101522.00
2022-08-24T02:11:59.206Z,101521.00
2022-08-24T02:14:36.701Z,101515.00
2022-08-24T02:17:11.615Z,101521.00
2022-08-24T02:19:44.595Z,101506.00
2022-08-24T02:22:17.835Z,101497.00
2022-08-24T02:24:50.825Z,101510.00
2022-08-24T02:27:28.180Z,101505.00
2022-08-24T02:30:01.077Z,101500.00
2022-08-24T02:32:33.831Z,101494.00
2022-08-24T02:35:07.681Z,101500.00
2022-08-24T02:37:43.740Z,101499.00
2022-08-24T02:40:16.051Z,101491.00
2022-08-24T02:42:53.378Z,101496.00
2022-08-24T02:45:26.446Z,101498.00
2022-08-24T02:47:59.447Z,101494.00
2022-08-24T02:50:32.801Z,101492.00
2022-08-24T02:53:05.807Z,101489.00
2022-08-24T02:55:39.112Z,101481.00
2022-08-24T02:58:13.070Z,101480.00
2022-08-24T03:00:47.588Z,101479.00
2022-08-24T03:03:21.214Z,101477.00
2022-08-24T03:05:54.226Z,101485.00
2022-08-24T03:08:28.158Z,101476.00
2022-08-24T03:11:06.294Z,101477.00
2022-08-24T03:13:39.842Z,101467.00
2022-08-24T03:16:17.148Z,101466.00
2022-08-24T03:18:50.035Z,101465.00
2022-08-24T03:21:23.019Z,101469.00
2022-08-24T03:23:55.836Z,101468.00
2022-08-24T03:26:28.796Z,101461.00
2022-08-24T03:29:02.189Z,101449.00
2022-08-24T03:31:35.134Z,101453.00
2022-08-24T03:34:08.423Z,101456.00
2022-08-24T03:36:41.268Z,101460.00
2022-08-24T03:39:14.231Z,101460.00
2022-08-24T03:44:36.242Z,101457.00
2022-08-24T03:47:10.336Z,101456.00
2022-08-24T03:49:43.725Z,101463.00
2022-08-24T03:52:16.547Z,101466.00
2022-08-24T03:54:49.329Z,101464.00
2022-08-24T03:57:22.216Z,101469.00
2022-08-24T03:59:55.179Z,101464.00
2022-08-24T04:02:32.441Z,101470.00
2022-08-24T04:05:03.603Z,101469.00
2022-08-24T04:07:36.759Z,101460.00
2022-08-24T04:10:10.426Z,101469.00
2022-08-24T04:12:43.675Z,101468.00
2022-08-24T04:15:17.911Z,101469.00
2022-08-24T04:17:50.864Z,101477.00
2022-08-24T04:20:23.791Z,101485.00
2022-08-24T04:22:56.724Z,101476.00
2022-08-24T04:25:29.756Z,101485.00
2022-08-24T04:28:02.662Z,101477.00
2022-08-24T04:30:38.155Z,101472.00
2022-08-24T04:33:11.159Z,101479.00
2022-08-24T04:35:45.979Z,101479.00
2022-08-24T04:38:20.321Z,101484.00
2022-08-24T04:40:53.173Z,101486.00
2022-08-24T04:43:26.493Z,101482.00
2022-08-24T04:45:59.722Z,101479.00
2022-08-24T04:48:32.697Z,101482.00
2022-08-24T04:51:13.988Z,101486.00
2022-08-24T04:53:45.534Z,101475.00
2022-08-24T04:56:23.370Z,101463.00
2022-08-24T04:58:57.432Z,101458.00
2022-08-24T05:01:32.577Z,101458.00
2022-08-24T05:04:06.531Z,101462.00
2022-08-24T05:06:39.891Z,101469.00
2022-08-24T05:09:13.049Z,101466.00
2022-08-24T05:11:50.094Z,101469.00
2022-08-24T05:14:22.843Z,101473.00
2022-08-24T05:16:55.497Z,101480.00
2022-08-24T05:19:29.115Z,101480.00
2022-08-24T05:22:01.922Z,101476.00
2022-08-24T05:24:34.858Z,101479.00
2022-08-24T05:27:08.000Z,101480.00
2022-08-24T05:29:40.937Z,101482.00
2022-08-24T05:32:13.977Z,101463.00
2022-08-24T05:34:51.103Z,101479.00
2022-08-24T05:37:24.288Z,101474.00
2022-08-24T05:39:57.328Z,101460.00
2022-08-24T05:42:30.251Z,101460.00
2022-08-24T05:45:03.536Z,101452.00
2022-08-24T05:47:36.485Z,101460.00
2022-08-24T05:50:12.622Z,101462.00
2022-08-24T05:52:45.770Z,101466.00
2022-08-24T05:55:18.782Z,101463.00
2022-08-24T05:57:52.368Z,101457.00
2022-08-24T06:00:26.779Z,101469.00
2022-08-24T06:03:00.189Z,101471.00
2022-08-24T06:05:33.334Z,101476.00
2022-08-24T06:08:07.354Z,101474.00
2022-08-24T06:10:47.852Z,101479.00
2022-08-24T06:13:21.433Z,101500.00
2022-08-24T06:16:19.926Z,101503.00
2022-08-24T06:18:30.471Z,101498.00
2022-08-24T06:21:04.732Z,101500.00
2022-08-24T06:23:37.968Z,101507.00
2022-08-24T06:26:29.015Z,101497.00
2022-08-24T06:29:05.028Z,101509.00
2022-08-24T06:31:43.144Z,101514.00
2022-08-24T06:34:17.994Z,101517.00
2022-08-24T06:36:50.874Z,101514.00
2022-08-24T06:39:26.882Z,101511.00
2022-08-24T06:41:59.804Z,101511.00
2022-08-24T06:44:32.992Z,101515.00
2022-08-24T06:47:05.983Z,101517.00
2022-08-24T06:49:39.184Z,101522.00
2022-08-24T06:52:13.669Z,101519.00
2022-08-24T06:54:46.798Z,101519.00
2022-08-24T06:57:19.443Z,101531.00
2022-08-24T06:59:52.561Z,101534.00
2022-08-24T07:02:25.744Z,101530.00
2022-08-24T07:04:59.718Z,101532.00
2022-08-24T07:07:33.081Z,101533.00
2022-08-24T07:10:11.310Z,101531.00
2022-08-24T07:12:44.711Z,101523.00
2022-08-24T07:15:18.771Z,101527.00
2022-08-24T07:17:51.424Z,101528.00
2022-08-24T07:20:28.666Z,101525.00
2022-08-24T07:23:01.829Z,101526.00
2022-08-24T07:25:35.982Z,101525.00
2022-08-24T07:28:13.310Z,101521.00
2022-08-24T07:30:51.909Z,101521.00
2022-08-24T07:33:25.044Z,101515.00
2022-08-24T07:35:58.180Z,101523.00
2022-08-24T07:38:31.181Z,101517.00
2022-08-24T07:41:33.681Z,101528.00
2022-08-24T07:43:41.800Z,101534.00
2022-08-24T07:46:13.292Z,101533.00
2022-08-24T07:48:48.470Z,101515.00
2022-08-24T07:51:24.542Z,101522.00
2022-08-24T07:53:57.436Z,101511.00
2022-08-24T07:56:31.047Z,101513.00
2022-08-24T07:59:04.186Z,101508.00
2022-08-24T08:01:37.722Z,101520.00
2022-08-24T08:04:10.845Z,101517.00
2022-08-24T08:06:45.123Z,101522.00
2022-08-24T08:09:18.918Z,101520.00
2022-08-24T08:11:51.607Z,101526.00
2022-08-24T08:14:40.308Z,101519.00
2022-08-24T08:17:13.334Z,101527.00
2022-08-24T08:19:46.371Z,101530.00
2022-08-24T08:22:36.887Z,101527.00
2022-08-24T08:25:14.899Z,101542.00
2022-08-24T08:27:48.692Z,101540.00
2022-08-24T08:30:21.457Z,101531.00
2022-08-24T08:32:54.534Z,101524.00
2022-08-24T08:35:28.528Z,101528.00
2022-08-24T08:38:01.605Z,101532.00
2022-08-24T08:40:36.746Z,101530.00
2022-08-24T08:43:20.244Z,101545.00
2022-08-24T08:46:01.378Z,101528.00
2022-08-24T08:48:49.146Z,101543.00
2022-08-24T08:51:39.413Z,101549.00
2022-08-24T08:54:26.082Z,101545.00
2022-08-24T08:57:35.860Z,101539.00
2022-08-24T09:00:15.861Z,101551.00
2022-08-24T09:03:03.979Z,101548.00
2022-08-24T09:06:03.523Z,101540.00
2022-08-24T09:08:52.031Z,101540.00
2022-08-24T09:11:53.346Z,101539.00
2022-08-24T09:14:51.076Z,101531.00
2022-08-24T09:17:47.006Z,101540.00
2022-08-24T09:20:38.420Z,101536.00
2022-08-24T09:23:16.406Z,101531.00
2022-08-24T09:26:08.243Z,101540.00
2022-08-24T09:29:03.887Z,101543.00
2022-08-24T09:31:57.248Z,101543.00
2022-08-24T09:34:41.687Z,101537.00
2022-08-24T09:37:23.315Z,101534.00
2022-08-24T09:40:08.109Z,101532.00
2022-08-24T09:43:03.188Z,101532.00
2022-08-24T09:45:41.217Z,101520.00
2022-08-24T09:48:28.418Z,101507.00
2022-08-24T09:51:03.511Z,101498.00
2022-08-24T09:53:53.162Z,101490.00
2022-08-24T09:57:04.378Z,101483.00
2022-08-24T09:59:38.581Z,101492.00
2022-08-24T10:02:16.456Z,101488.00
2022-08-24T10:05:00.102Z,101483.00
2022-08-24T10:07:50.263Z,101483.00
2022-08-24T10:10:33.003Z,101492.00
2022-08-24T10:13:15.781Z,101480.00
2022-08-24T10:15:53.606Z,101466.00
2022-08-24T10:18:47.969Z,101462.00
2022-08-24T10:21:41.784Z,101453.00
2022-08-24T10:24:32.265Z,101456.00
2022-08-24T10:27:12.835Z,101452.00
2022-08-24T10:29:54.095Z,101453.00
2022-08-24T10:32:56.608Z,101463.00
2022-08-24T10:35:34.221Z,101470.00
2022-08-24T10:38:31.982Z,101461.00
2022-08-24T10:41:27.009Z,101466.00
2022-08-24T10:44:19.788Z,101478.00
2022-08-24T10:47:00.108Z,101464.00
2022-08-24T10:50:00.631Z,101473.00
2022-08-24T10:53:05.689Z,101476.00
2022-08-24T10:55:39.377Z,101474.00
2022-08-24T10:58:33.806Z,101474.00
2022-08-24T11:01:20.834Z,101476.00
2022-08-24T11:03:58.854Z,101487.00
2022-08-24T11:06:33.949Z,101494.00
2022-08-24T11:09:21.020Z,101499.00
2022-08-24T11:11:54.652Z,101494.00
2022-08-24T11:14:31.137Z,101500.00
2022-08-24T11:17:21.120Z,101486.00
2022-08-24T11:19:59.603Z,101485.00
2022-08-24T11:22:34.586Z,101494.00
2022-08-24T11:25:15.442Z,101481.00
2022-08-24T11:27:50.133Z,101492.00
2022-08-24T11:30:31.298Z,101485.00
2022-08-24T11:33:09.161Z,101486.00
2022-08-24T11:35:43.130Z,101478.00
2022-08-24T11:38:31.025Z,101464.00
2022-08-24T11:41:29.838Z,101461.00
2022-08-24T11:44:22.888Z,101460.00
2022-08-24T11:46:57.493Z,101454.00
2022-08-24T11:49:53.679Z,101451.00
2022-08-24T11:52:40.848Z,101446.00
2022-08-24T11:55:15.936Z,101447.00
2022-08-24T11:58:17.934Z,101441.00
2022-08-24T12:00:52.479Z,101444.00
2022-08-24T12:03:36.325Z,101455.00
2022-08-24T12:06:34.716Z,101461.00
2022-08-24T12:09:15.258Z,101467.00
2022-08-24T12:11:53.188Z,101457.00
2022-08-24T12:14:28.167Z,101476.00
2022-08-24T12:17:03.684Z,101480.00
2022-08-24T12:19:41.268Z,101482.00
2022-08-24T12:22:15.530Z,101491.00
2022-08-24T12:24:59.625Z,101496.00
2022-08-24T12:27:37.382Z,101481.00
2022-08-24T12:30:17.811Z,101482.00
2022-08-24T12:32:55.946Z,101473.00
2022-08-24T12:35:39.954Z,101476.00
2022-08-24T12:38:32.959Z,101469.00
2022-08-24T12:41:17.703Z,101474.00
2022-08-24T12:43:56.809Z,101472.00
2022-08-24T12:46:30.784Z,101471.00
2022-08-24T12:49:17.895Z,101476.00
2022-08-24T12:52:16.870Z,101479.00
2022-08-24T12:55:13.963Z,101483.00
2022-08-24T12:57:57.689Z,101494.00
2022-08-24T13:00:41.727Z,101496.00
2022-08-24T13:03:19.661Z,101498.00
2022-08-24T13:05:54.342Z,101508.00
2022-08-24T13:08:37.961Z,101500.00
2022-08-24T13:11:14.247Z,101481.00
2022-08-24T13:13:51.819Z,101467.00
2022-08-24T13:16:49.825Z,101453.00
2022-08-24T13:19:36.864Z,101449.00
2022-08-24T13:22:18.012Z,101460.00
2022-08-24T13:24:53.127Z,101451.00
2022-08-24T13:27:27.814Z,101466.00
2022-08-24T13:30:08.698Z,101479.00
2022-08-24T13:32:43.300Z,101490.00
2022-08-24T13:35:45.368Z,101504.00
2022-08-24T13:38:32.259Z,101514.00
2022-08-24T13:41:31.277Z,101494.00
2022-08-24T13:44:08.882Z,101475.00
2022-08-24T13:47:17.246Z,101479.00
2022-08-24T13:50:17.664Z,101497.00
2022-08-24T13:53:08.459Z,101486.00
2022-08-24T13:55:58.216Z,101473.00
2022-08-24T13:58:45.504Z,101477.00
2022-08-24T14:01:32.736Z,101484.00
2022-08-24T14:04:13.997Z,101478.00
2022-08-24T14:07:20.261Z,101463.00
2022-08-24T14:10:17.934Z,101472.00
2022-08-24T14:12:58.645Z,101464.00
2022-08-24T14:15:39.568Z,101451.00
2022-08-24T14:18:32.561Z,101450.00
2022-08-24T14:21:17.870Z,101439.00
2022-08-24T14:24:10.296Z,101422.00
2022-08-24T14:26:46.368Z,101406.00
2022-08-24T14:29:24.648Z,101406.00
2022-08-24T14:32:12.589Z,101399.00
2022-08-24T14:34:53.622Z,101411.00
2022-08-24T14:37:28.372Z,101410.00
2022-08-24T14:40:12.352Z,101405.00
2022-08-24T14:42:47.588Z,101412.00
2022-08-24T14:45:28.659Z,101421.00
2022-08-24T14:48:14.422Z,101437.00
2022-08-24T14:51:05.722Z,101435.00
2022-08-24T14:53:49.856Z,101434.00
2022-08-24T14:56:41.536Z,101437.00
2022-08-24T14:59:32.956Z,101426.00
2022-08-24T15:02:16.346Z,101421.00
2022-08-24T15:04:55.826Z,101399.00
2022-08-24T15:07:36.700Z,101387.00
2022-08-24T15:10:12.154Z,101371.00
2022-08-24T15:12:53.643Z,101368.00
2022-08-24T15:15:34.500Z,101362.00
2022-08-24T15:18:27.391Z,101352.00
2022-08-24T15:21:11.027Z,101339.00
2022-08-24T15:24:10.047Z,101324.00
2022-08-24T15:26:43.581Z,101306.00
2022-08-24T15:29:27.275Z,101292.00
2022-08-24T15:32:05.053Z,101274.00
2022-08-24T15:34:40.515Z,101263.00
2022-08-24T15:37:13.616Z,101259.00
2022-08-24T15:39:46.643Z,101220.00
2022-08-24T15:42:20.199Z,101227.00
2022-08-24T15:44:54.097Z,101220.00
2022-08-24T15:47:40.560Z,101200.00
2022-08-24T15:50:25.125Z,101208.00
2022-08-24T15:53:17.175Z,101233.00
2022-08-24T15:55:53.249Z,101253.00
2022-08-24T15:58:30.043Z,101261.00
2022-08-24T16:01:34.022Z,101270.00
2022-08-24T16:04:09.193Z,101285.00
2022-08-24T16:06:44.555Z,101301.00
2022-08-24T16:09:29.685Z,101291.00
2022-08-24T16:12:05.499Z,101295.00
2022-08-24T16:14:49.660Z,101299.00
2022-08-24T16:17:33.111Z,101311.00
2022-08-24T16:20:12.833Z,101301.00
2022-08-24T16:22:57.110Z,101294.00
2022-08-24T16:25:34.569Z,101306.00
2022-08-24T16:28:27.814Z,101302.00
2022-08-24T16:31:07.740Z,101297.00
2022-08-24T16:33:44.674Z,101293.00
2022-08-24T16:36:27.042Z,101279.00
2022-08-24T16:39:00.177Z,101284.00
2022-08-24T16:41:33.241Z,101293.00
2022-08-24T16:44:06.246Z,101292.00
2022-08-24T16:46:41.064Z,101282.00
2022-08-24T16:49:14.060Z,101284.00
2022-08-24T16:51:47.109Z,101285.00
2022-08-24T16:54:20.118Z,101287.00
2022-08-24T16:56:53.840Z,101272.00
2022-08-24T16:59:31.471Z,101276.00
2022-08-24T17:02:10.188Z,101276.00
2022-08-24T17:04:45.498Z,101268.00
2022-08-24T17:07:20.263Z,101261.00
2022-08-24T17:09:53.796Z,101257.00
2022-08-24T17:12:28.901Z,101261.00
2022-08-24T17:15:03.247Z,101257.00
2022-08-24T17:17:36.654Z,101261.00
2022-08-24T17:20:12.295Z,101253.00
2022-08-24T17:22:45.382Z,101238.00
2022-08-24T17:25:18.464Z,101245.00
2022-08-24T17:27:51.742Z,101254.00
2022-08-24T17:30:25.630Z,101256.00
2022-08-24T17:32:59.562Z,101257.00
2022-08-24T17:35:32.703Z,101265.00
2022-08-24T17:38:06.437Z,101259.00
2022-08-24T17:40:39.702Z,101281.00
2022-08-24T17:43:12.617Z,101277.00
2022-08-24T17:45:50.145Z,101269.00
2022-08-24T17:48:24.806Z,101238.00
2022-08-24T17:50:58.025Z,101240.00
2022-08-24T17:53:30.886Z,101247.00
2022-08-24T17:56:03.898Z,101266.00
2022-08-24T17:58:38.045Z,101269.00
2022-08-24T18:01:11.154Z,101267.00
2022-08-24T18:03:44.232Z,101265.00
2022-08-24T18:06:17.339Z,101278.00
2022-08-24T18:08:51.079Z,101277.00
2022-08-24T18:11:25.998Z,101261.00
2022-08-24T18:13:58.177Z,101241.00
2022-08-24T18:16:31.534Z,101246.00
2022-08-24T18:19:04.588Z,101256.00
2022-08-24T18:21:37.334Z,101266.00
2022-08-24T18:24:10.700Z,101252.00
2022-08-24T18:26:47.577Z,101256.00
2022-08-24T18:29:22.135Z,101259.00
2022-08-24T18:31:55.613Z,101253.00
2022-08-24T18:34:28.726Z,101254.00
2022-08-24T18:37:01.785Z,101271.00
2022-08-24T18:39:34.830Z,101271.00
2022-08-24T18:42:09.440Z,101275.00
2022-08-24T18:44:43.022Z,101279.00
2022-08-24T18:47:15.797Z,101276.00
2022-08-24T18:49:48.807Z,101293.00
2022-08-24T18:52:21.952Z,101288.00
2022-08-24T18:54:54.813Z,101284.00
2022-08-24T18:57:28.009Z,101292.00
2022-08-24T19:00:01.019Z,101292.00
2022-08-24T19:02:34.945Z,101292.00
2022-08-24T19:05:13.056Z,101287.00
2022-08-24T19:07:48.397Z,101280.00
2022-08-24T19:10:23.633Z,101287.00
2022-08-24T19:13:08.124Z,101294.00
2022-08-24T19:15:41.368Z,101307.00
2022-08-24T19:18:14.903Z,101302.00
2022-08-24T19:20:51.110Z,101296.00
2022-08-24T19:23:41.003Z,101309.00
2022-08-24T19:26:14.113Z,101289.00
2022-08-24T19:28:49.558Z,101291.00
2022-08-24T19:31:24.469Z,101293.00
2022-08-24T19:33:57.555Z,101283.00
2022-08-24T19:36:30.882Z,101290.00
2022-08-24T19:39:03.895Z,101284.00
2022-08-24T19:41:39.653Z,101272.00
2022-08-24T19:44:30.836Z,101278.00
2022-08-24T19:47:04.878Z,101267.00
2022-08-24T19:49:37.999Z,101253.00
2022-08-24T19:52:10.770Z,101241.00
2022-08-24T19:54:45.902Z,101217.00
2022-08-24T19:57:30.058Z,101211.00
2022-08-24T20:00:10.945Z,101204.00
2022-08-24T20:02:43.810Z,101194.00
2022-08-24T20:05:16.542Z,101188.00
2022-08-24T20:07:50.211Z,101167.00
2022-08-24T20:10:28.994Z,101177.00
2022-08-24T20:13:02.317Z,101146.00
2022-08-24T20:15:35.712Z,101143.00
2022-08-24T20:18:09.654Z,101153.00
2022-08-24T20:20:42.543Z,101143.00
2022-08-24T20:23:15.484Z,101149.00
2022-08-24T20:25:48.520Z,101146.00
2022-08-24T20:28:30.554Z,101142.00
2022-08-24T20:31:00.498Z,101129.00
2022-08-24T20:33:33.753Z,101154.00
2022-08-24T20:36:07.437Z,101165.00
2022-08-24T20:38:44.471Z,101162.00
2022-08-24T20:41:17.578Z,101107.00
2022-08-24T20:43:50.996Z,101079.00
2022-08-24T20:46:24.935Z,101088.00
2022-08-24T20:48:58.941Z,101072.00
2022-08-24T20:51:31.836Z,101105.00
2022-08-24T20:54:10.198Z,101094.00
2022-08-24T20:56:43.081Z,101060.00
2022-08-24T20:59:18.264Z,101079.00
2022-08-24T21:01:51.309Z,101073.00
2022-08-24T21:04:24.246Z,101068.00
2022-08-24T21:06:57.110Z,101056.00
2022-08-24T21:09:29.873Z,101051.00
2022-08-24T21:12:03.435Z,101042.00
2022-08-24T21:14:36.394Z,101057.00
2022-08-24T21:17:10.505Z,101062.00
2022-08-24T21:19:43.971Z,101058.00
2022-08-24T21:22:19.404Z,101026.00
2022-08-24T21:24:52.344Z,101023.00
2022-08-24T21:27:25.454Z,101028.00
2022-08-24T21:29:58.300Z,100999.00
2022-08-24T21:32:48.754Z,101020.00
2022-08-24T21:35:21.769Z,101022.00
2022-08-24T21:37:57.729Z,101021.00
2022-08-24T21:40:31.373Z,101021.00
2022-08-24T21:43:14.630Z,101004.00
2022-08-24T21:45:38.556Z,101018.00
2022-08-24T21:48:11.499Z,101005.00
2022-08-24T21:50:44.402Z,101019.00
2022-08-24T21:53:17.051Z,101046.00
2022-08-24T21:55:50.760Z,101078.00
2022-08-24T21:58:23.683Z,101086.00
2022-08-24T22:00:59.195Z,101095.00
2022-08-24T22:03:37.589Z,101115.00
2022-08-24T22:06:05.951Z,101103.00
2022-08-24T22:08:40.702Z,101114.00
2022-08-24T22:11:15.133Z,101096.00
2022-08-24T22:13:48.487Z,101081.00
2022-08-24T22:16:22.427Z,101082.00
2022-08-24T22:18:55.890Z,101083.00
2022-08-24T22:21:36.278Z,101078.00
2022-08-24T22:24:05.504Z,101042.00
2022-08-24T22:26:39.028Z,101017.00
2022-08-24T22:29:13.131Z,101022.00
2022-08-24T22:31:46.934Z,101028.00
2022-08-24T22:34:21.180Z,101055.00
2022-08-24T22:36:54.663Z,101061.00
2022-08-24T22:39:27.652Z,101066.00
2022-08-24T22:42:00.889Z,101076.00
2022-08-24T22:44:33.890Z,101089.00
2022-08-24T22:47:13.104Z,101117.00
2022-08-24T22:49:45.804Z,101121.00
2022-08-24T22:52:20.569Z,101112.00
2022-08-24T22:54:53.460Z,101102.00
2022-08-24T22:57:26.921Z,101096.00
2022-08-24T23:00:00.977Z,101084.00
2022-08-24T23:02:33.994Z,101078.00
2022-08-24T23:05:07.815Z,101061.00
2022-08-24T23:07:40.721Z,101068.00
2022-08-24T23:10:15.951Z,101039.00
2022-08-24T23:12:48.995Z,101038.00
2022-08-24T23:15:22.136Z,101003.00
2022-08-24T23:17:54.784Z,101009.00
2022-08-24T23:20:28.211Z,100997.00
2022-08-24T23:23:04.920Z,100982.00
2022-08-24T23:25:37.873Z,100978.00
2022-08-24T23:28:12.839Z,100978.00
2022-08-24T23:30:48.299Z,100988.00
2022-08-24T23:33:21.112Z,100986.00
2022-08-24T23:35:54.032Z,100965.00
2022-08-24T23:38:27.879Z,100934.00
2022-08-24T23:41:00.815Z,100931.00
2022-08-24T23:43:33.549Z,100937.00
2022-08-24T23:46:07.213Z,100926.00
2022-08-24T23:48:40.159Z,100924.00
2022-08-24T23:51:14.300Z,100917.00
2022-08-24T23:53:51.219Z,100909.00
2022-08-24T23:56:27.110Z,100915.00
2022-08-24T23:59:06.448Z,100924.00
